createdAt,value
2022-08-19T00:01:28.788Z,1.35
2022-08-19T00:04:01.600Z,0.85
2022-08-19T00:06:29.674Z,0.95
2022-08-19T00:08:58.418Z,1.15
2022-08-19T00:11:26.424Z,1.10
2022-08-19T00:13:53.898Z,1.27
2022-08-19T00:16:26.147Z,1.13
2022-08-19T00:18:54.935Z,1.23
2022-08-19T00:21:22.116Z,1.33
2022-08-19T00:23:49.035Z,0.90
2022-08-19T00:26:15.828Z,0.88
2022-08-19T00:28:42.596Z,0.70
2022-08-19T00:31:10.610Z,1.13
2022-08-19T00:33:37.802Z,0.80
2022-08-19T00:36:08.631Z,0.98
2022-08-19T00:38:37.656Z,0.82
2022-08-19T00:41:06.919Z,1.48
2022-08-19T00:43:34.231Z,1.27
2022-08-19T00:46:02.415Z,0.75
2022-08-19T00:48:29.282Z,1.05
2022-08-19T00:50:56.633Z,1.38
2022-08-19T00:53:27.440Z,0.88
2022-08-19T00:55:57.269Z,1.05
2022-08-19T00:58:29.089Z,1.08
2022-08-19T01:00:55.915Z,1.27
2022-08-19T01:03:23.812Z,1.25
2022-08-19T01:05:52.934Z,1.17
2022-08-19T01:08:24.270Z,1.00
2022-08-19T01:10:57.797Z,0.80
2022-08-19T01:13:28.629Z,0.98
2022-08-19T01:16:12.877Z,1.42
2022-08-19T01:18:43.173Z,1.00
2022-08-19T01:21:40.144Z,1.60
2022-08-19T01:24:07.100Z,1.50
2022-08-19T01:26:40.695Z,1.05
2022-08-19T01:29:09.524Z,1.27
2022-08-19T01:31:37.366Z,1.58
2022-08-19T01:34:04.516Z,0.93
2022-08-19T01:36:33.330Z,0.90
2022-08-19T01:39:01.547Z,0.95
2022-08-19T01:41:28.528Z,1.02
2022-08-19T01:44:13.274Z,0.82
2022-08-19T01:46:44.559Z,1.58
2022-08-19T01:49:11.717Z,1.42
2022-08-19T01:51:40.154Z,1.48
2022-08-19T01:54:09.067Z,1.67
2022-08-19T01:56:36.303Z,1.65
2022-08-19T01:59:08.404Z,1.73
2022-08-19T02:01:35.884Z,1.75
2022-08-19T02:04:03.423Z,2.08
2022-08-19T02:06:30.721Z,1.55
2022-08-19T02:08:58.416Z,1.50
2022-08-19T02:11:32.622Z,1.58
2022-08-19T02:14:04.489Z,1.58
2022-08-19T02:16:31.666Z,1.70
2022-08-19T02:19:01.371Z,1.70
2022-08-19T02:21:29.035Z,1.95
2022-08-19T02:23:56.358Z,1.77
2022-08-19T02:26:23.662Z,1.50
2022-08-19T02:28:50.504Z,1.67
2022-08-19T02:31:20.119Z,1.65
2022-08-19T02:33:47.834Z,1.73
2022-08-19T02:36:16.408Z,1.58
2022-08-19T02:38:54.800Z,1.88
2022-08-19T02:41:28.566Z,1.67
2022-08-19T02:44:28.540Z,1.73
2022-08-19T02:46:48.339Z,1.67
2022-08-19T02:49:17.332Z,1.67
2022-08-19T02:51:46.848Z,1.50
2022-08-19T02:54:14.583Z,1.65
2022-08-19T02:56:42.776Z,1.70
2022-08-19T02:59:11.448Z,1.50
2022-08-19T03:01:41.525Z,1.55
2022-08-19T03:04:10.733Z,1.88
2022-08-19T03:06:39.616Z,1.65
2022-08-19T03:09:06.500Z,1.52
2022-08-19T03:11:34.212Z,1.67
2022-08-19T03:14:02.269Z,1.52
2022-08-19T03:16:33.361Z,1.45
2022-08-19T03:19:02.495Z,1.63
2022-08-19T03:21:32.549Z,1.83
2022-08-19T03:24:06.244Z,1.85
2022-08-19T03:26:33.400Z,1.48
2022-08-19T03:29:04.850Z,1.42
2022-08-19T03:31:43.489Z,1.05
2022-08-19T03:34:21.715Z,1.88
2022-08-19T03:36:48.705Z,1.40
2022-08-19T03:39:16.585Z,1.50
2022-08-19T03:41:48.336Z,1.77
2022-08-19T03:44:19.229Z,1.75
2022-08-19T03:46:54.913Z,1.58
2022-08-19T03:49:27.201Z,1.63
2022-08-19T03:51:57.519Z,1.58
2022-08-19T03:54:26.267Z,1.48
2022-08-19T03:56:54.966Z,1.10
2022-08-19T03:59:29.476Z,1.17
2022-08-19T04:01:58.402Z,1.85
2022-08-19T04:04:29.049Z,1.52
2022-08-19T04:06:57.136Z,1.30
2022-08-19T04:09:24.302Z,1.70
2022-08-19T04:11:55.926Z,1.55
2022-08-19T04:14:29.776Z,1.77
2022-08-19T04:16:56.868Z,1.60
2022-08-19T04:19:24.164Z,1.33
2022-08-19T04:21:54.744Z,1.70
2022-08-19T04:24:22.818Z,1.70
2022-08-19T04:26:50.343Z,1.80
2022-08-19T04:29:22.273Z,1.92
2022-08-19T04:31:49.735Z,1.75
2022-08-19T04:34:18.816Z,1.60
2022-08-19T04:36:46.922Z,1.70
2022-08-19T04:39:17.082Z,1.58
2022-08-19T04:42:04.172Z,1.40
2022-08-19T04:44:35.603Z,1.52
2022-08-19T04:47:11.145Z,1.50
2022-08-19T04:49:38.532Z,2.13
2022-08-19T04:52:05.342Z,1.80
2022-08-19T04:54:38.220Z,1.58
2022-08-19T04:57:10.980Z,2.13
2022-08-19T04:59:39.632Z,1.70
2022-08-19T05:02:07.549Z,1.42
2022-08-19T05:04:34.648Z,1.95
2022-08-19T05:07:02.169Z,1.77
2022-08-19T05:09:55.690Z,1.92
2022-08-19T05:12:18.090Z,1.83
2022-08-19T05:14:46.568Z,1.95
2022-08-19T05:17:31.269Z,1.63
2022-08-19T05:20:18.773Z,1.63
2022-08-19T05:22:47.568Z,1.73
2022-08-19T05:25:19.962Z,1.30
2022-08-19T05:27:47.144Z,2.22
2022-08-19T05:30:14.303Z,1.33
2022-08-19T05:32:41.532Z,1.42
2022-08-19T05:35:09.027Z,1.20
2022-08-19T05:37:36.077Z,1.10
2022-08-19T05:40:04.171Z,1.10
2022-08-19T05:42:31.583Z,0.90
2022-08-19T05:44:58.835Z,0.57
2022-08-19T05:47:25.665Z,1.30
2022-08-19T05:49:52.489Z,0.70
2022-08-19T05:52:26.068Z,0.80
2022-08-19T05:54:55.991Z,0.65
2022-08-19T05:57:23.157Z,0.68
2022-08-19T05:59:57.877Z,1.25
2022-08-19T06:02:29.647Z,0.57
2022-08-19T06:04:56.531Z,0.60
2022-08-19T06:07:23.453Z,0.60
2022-08-19T06:10:00.323Z,0.75
2022-08-19T06:12:32.327Z,0.63
2022-08-19T06:15:01.070Z,0.40
2022-08-19T06:17:31.051Z,1.02
2022-08-19T06:19:59.256Z,0.47
2022-08-19T06:22:26.301Z,0.60
2022-08-19T06:24:54.730Z,0.52
2022-08-19T06:27:22.422Z,0.55
2022-08-19T06:29:49.541Z,0.65
2022-08-19T06:32:18.775Z,0.52
2022-08-19T06:34:45.681Z,0.70
2022-08-19T06:37:13.420Z,0.30
2022-08-19T06:39:42.456Z,0.50
2022-08-19T06:42:12.516Z,1.23
2022-08-19T06:44:42.873Z,0.20
2022-08-19T06:47:14.528Z,0.20
2022-08-19T06:49:42.627Z,0.50
2022-08-19T06:52:13.904Z,0.30
2022-08-19T06:54:46.587Z,0.93
2022-08-19T06:57:26.488Z,0.52
2022-08-19T06:59:53.386Z,0.30
2022-08-19T07:02:21.717Z,0.22
2022-08-19T07:04:52.419Z,0.45
2022-08-19T07:07:21.810Z,0.50
2022-08-19T07:09:52.270Z,0.52
2022-08-19T07:12:25.751Z,0.60
2022-08-19T07:14:53.737Z,0.40
2022-08-19T07:17:21.789Z,0.60
2022-08-19T07:19:49.151Z,0.40
2022-08-19T07:22:15.954Z,0.82
2022-08-19T07:24:51.168Z,0.32
2022-08-19T07:27:24.419Z,0.50
2022-08-19T07:29:56.065Z,0.40
2022-08-19T07:32:27.673Z,0.60
2022-08-19T07:34:55.060Z,0.60
2022-08-19T07:37:27.313Z,0.57
2022-08-19T07:39:56.305Z,0.90
2022-08-19T07:42:23.132Z,0.40
2022-08-19T07:44:50.326Z,0.30
2022-08-19T07:47:48.215Z,0.30
2022-08-19T07:50:09.277Z,0.40
2022-08-19T07:52:38.211Z,0.50
2022-08-19T07:55:06.736Z,0.40
2022-08-19T07:57:54.572Z,0.55
2022-08-19T08:00:23.828Z,0.30
2022-08-19T08:02:52.983Z,0.32
2022-08-19T08:05:43.690Z,0.95
2022-08-19T08:08:30.575Z,0.57
2022-08-19T08:10:58.174Z,0.43
2022-08-19T08:13:26.794Z,0.40
2022-08-19T08:15:55.965Z,0.20
2022-08-19T08:18:27.496Z,0.80
2022-08-19T08:20:58.108Z,0.55
2022-08-19T08:23:30.156Z,0.45
2022-08-19T08:25:59.043Z,0.60
2022-08-19T08:28:30.604Z,0.60
2022-08-19T08:31:01.442Z,1.20
2022-08-19T08:33:34.875Z,0.68
2022-08-19T08:36:05.474Z,0.28
2022-08-19T08:38:39.055Z,0.28
2022-08-19T08:41:20.462Z,0.52
2022-08-19T08:43:52.082Z,0.30
2022-08-19T08:46:34.289Z,0.50
2022-08-19T08:49:16.773Z,0.60
2022-08-19T08:52:00.079Z,0.40
2022-08-19T08:54:34.709Z,0.65
2022-08-19T08:57:03.744Z,0.65
2022-08-19T08:59:37.572Z,0.40
2022-08-19T09:02:04.661Z,0.68
2022-08-19T09:04:31.593Z,0.63
2022-08-19T09:07:34.673Z,0.68
2022-08-19T09:10:35.548Z,0.40
2022-08-19T09:13:53.449Z,0.40
2022-08-19T09:16:27.743Z,0.43
2022-08-19T09:19:07.773Z,0.25
2022-08-19T09:21:39.343Z,0.93
2022-08-19T09:24:07.850Z,1.05
2022-08-19T09:26:47.627Z,0.77
2022-08-19T09:29:22.538Z,0.98
2022-08-19T09:31:51.151Z,0.70
2022-08-19T09:34:21.541Z,0.40
2022-08-19T09:36:55.413Z,0.63
2022-08-19T09:39:23.147Z,0.70
2022-08-19T09:41:50.985Z,0.50
2022-08-19T09:44:18.944Z,0.47
2022-08-19T09:46:48.258Z,0.80
2022-08-19T09:49:18.308Z,0.65
2022-08-19T09:51:49.071Z,0.35
2022-08-19T09:54:23.556Z,0.35
2022-08-19T09:56:53.068Z,0.43
2022-08-19T09:59:20.081Z,0.63
2022-08-19T10:01:46.960Z,0.52
2022-08-19T10:04:14.900Z,0.75
2022-08-19T10:06:53.886Z,0.75
2022-08-19T10:09:33.767Z,0.68
2022-08-19T10:12:03.177Z,0.38
2022-08-19T10:14:30.873Z,0.68
2022-08-19T10:16:59.199Z,0.68
2022-08-19T10:19:26.758Z,0.60
2022-08-19T10:21:58.656Z,0.65
2022-08-19T10:24:28.970Z,0.75
2022-08-19T10:26:59.150Z,0.50
2022-08-19T10:29:32.725Z,0.80
2022-08-19T10:32:03.116Z,0.90
2022-08-19T10:34:32.050Z,0.82
2022-08-19T10:37:01.950Z,0.68
2022-08-19T10:39:41.024Z,0.80
2022-08-19T10:42:14.765Z,0.98
2022-08-19T10:44:42.412Z,0.50
2022-08-19T10:47:17.954Z,1.05
2022-08-19T10:50:11.843Z,0.90
2022-08-19T10:52:49.088Z,0.70
2022-08-19T10:55:38.900Z,1.92
2022-08-19T10:58:11.073Z,1.10
2022-08-19T11:03:05.028Z,0.85
2022-08-19T11:05:31.833Z,0.70
2022-08-19T11:08:22.300Z,1.10
2022-08-19T11:10:52.077Z,1.00
2022-08-19T11:13:19.560Z,0.88
2022-08-19T11:15:46.812Z,1.00
2022-08-19T11:18:13.879Z,1.02
2022-08-19T11:20:40.923Z,0.93
2022-08-19T11:23:08.188Z,1.33
2022-08-19T11:25:36.199Z,0.63
2022-08-19T11:28:03.706Z,1.10
2022-08-19T11:30:30.631Z,0.98
2022-08-19T11:32:58.059Z,1.10
2022-08-19T11:35:25.457Z,0.88
2022-08-19T11:37:52.411Z,1.45
2022-08-19T11:40:19.694Z,1.15
2022-08-19T11:43:03.872Z,1.25
2022-08-19T11:45:31.745Z,0.85
2022-08-19T11:47:58.506Z,1.27
2022-08-19T11:50:25.638Z,1.27
2022-08-19T11:52:56.088Z,1.50
2022-08-19T11:55:23.513Z,1.75
2022-08-19T11:57:50.498Z,1.10
2022-08-19T12:00:17.579Z,1.50
2022-08-19T12:02:44.465Z,1.95
2022-08-19T12:05:12.836Z,1.30
2022-08-19T12:07:40.677Z,1.60
2022-08-19T12:10:08.391Z,1.55
2022-08-19T12:12:35.654Z,1.73
2022-08-19T12:15:03.092Z,1.73
2022-08-19T12:17:31.875Z,1.50
2022-08-19T12:19:58.776Z,1.42
2022-08-19T12:22:25.656Z,1.30
2022-08-19T12:24:54.261Z,1.42
2022-08-19T12:27:40.326Z,1.25
2022-08-19T12:30:11.353Z,1.40
2022-08-19T12:32:38.609Z,1.45
2022-08-19T12:35:06.536Z,1.58
2022-08-19T12:37:33.446Z,1.83
2022-08-19T12:40:00.459Z,1.63
2022-08-19T12:42:27.949Z,1.83
2022-08-19T12:44:54.867Z,1.50
2022-08-19T12:47:22.046Z,1.58
2022-08-19T12:49:54.544Z,1.33
2022-08-19T12:52:28.030Z,1.55
2022-08-19T12:54:56.681Z,1.55
2022-08-19T12:57:31.952Z,1.50
2022-08-19T13:00:05.841Z,1.83
2022-08-19T13:02:38.641Z,1.42
2022-08-19T13:05:09.230Z,2.05
2022-08-19T13:07:36.962Z,1.90
2022-08-19T13:10:04.360Z,1.58
2022-08-19T13:12:31.317Z,1.50
2022-08-19T13:14:58.166Z,1.90
2022-08-19T13:17:25.361Z,0.93
2022-08-19T13:19:52.484Z,1.55
2022-08-19T13:22:19.482Z,1.52
2022-08-19T13:24:47.548Z,1.45
2022-08-19T13:27:14.835Z,1.65
2022-08-19T13:30:02.794Z,1.98
2022-08-19T13:32:49.283Z,2.30
2022-08-19T13:35:17.765Z,1.83
2022-08-19T13:37:46.394Z,1.88
2022-08-19T13:40:20.012Z,2.08
2022-08-19T13:42:49.474Z,1.50
2022-08-19T13:45:19.017Z,2.13
2022-08-19T13:47:48.279Z,1.27
2022-08-19T13:50:19.037Z,1.60
2022-08-19T13:52:46.120Z,1.35
2022-08-19T13:55:13.795Z,2.10
2022-08-19T13:57:40.732Z,1.55
2022-08-19T14:00:16.355Z,1.48
2022-08-19T14:02:44.113Z,1.65
2022-08-19T14:05:13.335Z,1.73
2022-08-19T14:07:40.389Z,1.70
2022-08-19T14:10:09.664Z,1.40
2022-08-19T14:12:37.655Z,1.50
2022-08-19T14:15:06.668Z,2.20
2022-08-19T14:17:35.798Z,1.55
2022-08-19T14:20:11.004Z,1.77
2022-08-19T14:22:40.418Z,1.63
2022-08-19T14:25:10.985Z,1.67
2022-08-19T14:27:39.852Z,1.60
2022-08-19T14:30:10.968Z,1.60
2022-08-19T14:32:38.036Z,1.67
2022-08-19T14:35:06.021Z,1.40
2022-08-19T14:37:35.037Z,1.50
2022-08-19T14:40:14.112Z,1.52
2022-08-19T14:42:42.066Z,1.67
2022-08-19T14:45:10.652Z,1.85
2022-08-19T14:47:46.910Z,1.48
2022-08-19T14:50:17.923Z,1.80
2022-08-19T14:52:48.577Z,1.80
2022-08-19T14:55:18.378Z,1.30
2022-08-19T14:57:45.773Z,1.77
2022-08-19T15:00:14.127Z,1.98
2022-08-19T15:02:42.382Z,2.30
2022-08-19T15:05:09.771Z,1.90
2022-08-19T15:07:37.466Z,1.20
2022-08-19T15:10:07.868Z,1.88
2022-08-19T15:12:43.998Z,1.70
2022-08-19T15:15:26.567Z,1.67
2022-08-19T15:17:53.335Z,1.27
2022-08-19T15:20:22.843Z,1.80
2022-08-19T15:22:50.183Z,1.85
2022-08-19T15:25:19.585Z,1.80
2022-08-19T15:27:46.777Z,1.83
2022-08-19T15:30:19.352Z,1.80
2022-08-19T15:32:48.960Z,1.50
2022-08-19T15:35:16.715Z,1.85
2022-08-19T15:37:52.281Z,1.58
2022-08-19T15:40:32.780Z,2.03
2022-08-19T15:43:00.671Z,1.50
2022-08-19T15:45:40.463Z,1.90
2022-08-19T15:48:14.341Z,2.00
2022-08-19T15:50:46.256Z,1.70
2022-08-19T15:53:23.666Z,2.47
2022-08-19T15:55:55.856Z,1.80
2022-08-19T15:58:45.113Z,1.70
2022-08-19T16:01:30.841Z,2.20
2022-08-19T16:04:20.391Z,1.60
2022-08-19T16:06:50.489Z,1.75
2022-08-19T16:09:27.356Z,1.65
2022-08-19T16:12:01.170Z,1.85
2022-08-19T16:14:32.852Z,1.98
2022-08-19T16:16:59.768Z,1.77
2022-08-19T16:19:27.382Z,1.63
2022-08-19T16:21:56.297Z,2.20
2022-08-19T16:24:26.728Z,1.58
2022-08-19T16:26:54.564Z,1.63
2022-08-19T16:29:33.601Z,1.23
2022-08-19T16:32:02.838Z,1.40
2022-08-19T16:34:29.850Z,2.20
2022-08-19T16:36:56.696Z,1.58
2022-08-19T16:39:23.802Z,1.92
2022-08-19T16:41:51.581Z,1.52
2022-08-19T16:44:19.468Z,1.77
2022-08-19T16:46:47.367Z,1.65
2022-08-19T16:49:54.191Z,2.15
2022-08-19T16:52:14.761Z,2.08
2022-08-19T16:54:43.479Z,2.75
2022-08-19T16:57:11.920Z,1.92
2022-08-19T16:59:48.203Z,2.28
2022-08-19T17:02:22.110Z,2.25
2022-08-19T17:04:57.516Z,1.95
2022-08-19T17:07:28.549Z,2.35
2022-08-19T17:09:56.108Z,2.30
2022-08-19T17:12:31.595Z,2.15
2022-08-19T17:15:01.160Z,2.15
2022-08-19T17:17:29.636Z,2.38
2022-08-19T17:19:59.097Z,1.63
2022-08-19T17:22:26.160Z,2.13
2022-08-19T17:24:53.008Z,2.40
2022-08-19T17:27:23.094Z,2.47
2022-08-19T17:29:49.894Z,2.58
2022-08-19T17:32:16.657Z,2.22
2022-08-19T17:34:52.231Z,2.03
2022-08-19T17:37:19.224Z,2.30
2022-08-19T17:39:46.159Z,2.33
2022-08-19T17:42:13.013Z,1.88
2022-08-19T17:44:40.885Z,2.70
2022-08-19T17:47:07.855Z,2.00
2022-08-19T17:49:35.336Z,1.83
2022-08-19T17:52:02.206Z,2.28
2022-08-19T17:54:33.681Z,1.90
2022-08-19T17:57:01.378Z,1.42
2022-08-19T17:59:30.101Z,1.90
2022-08-19T18:01:57.827Z,2.28
2022-08-19T18:04:25.910Z,1.75
2022-08-19T18:06:55.368Z,1.95
2022-08-19T18:09:28.791Z,1.77
2022-08-19T18:12:08.949Z,1.88
2022-08-19T18:14:37.905Z,2.22
2022-08-19T18:17:09.599Z,1.38
2022-08-19T18:19:41.364Z,2.28
2022-08-19T18:22:23.134Z,1.60
2022-08-19T18:24:50.146Z,2.40
2022-08-19T18:27:17.010Z,2.17
2022-08-19T18:29:44.335Z,2.08
2022-08-19T18:32:14.467Z,1.80
2022-08-19T18:34:45.922Z,2.25
2022-08-19T18:37:13.048Z,2.00
2022-08-19T18:39:58.635Z,2.22
2022-08-19T18:42:44.184Z,1.75
2022-08-19T18:45:30.308Z,1.65
2022-08-19T18:48:23.987Z,2.03
2022-08-19T18:50:57.255Z,1.83
2022-08-19T18:53:24.713Z,2.05
2022-08-19T18:55:55.001Z,1.80
2022-08-19T18:58:32.333Z,1.48
2022-08-19T19:01:29.779Z,1.52
2022-08-19T19:04:00.336Z,1.73
2022-08-19T19:06:32.274Z,2.03
2022-08-19T19:08:59.152Z,1.75
2022-08-19T19:11:37.279Z,1.77
2022-08-19T19:14:19.194Z,2.20
2022-08-19T19:16:50.310Z,1.92
2022-08-19T19:19:17.932Z,1.27
2022-08-19T19:21:49.410Z,1.98
2022-08-19T19:24:22.320Z,2.50
2022-08-19T19:26:51.465Z,1.95
2022-08-19T19:29:19.353Z,1.90
2022-08-19T19:31:48.072Z,1.70
2022-08-19T19:34:29.322Z,1.20
2022-08-19T19:36:57.011Z,2.05
2022-08-19T19:39:34.024Z,1.70
2022-08-19T19:42:12.922Z,1.80
2022-08-19T19:44:52.871Z,2.20
2022-08-19T19:47:21.426Z,1.60
2022-08-19T19:50:13.392Z,1.75
2022-08-19T19:52:40.844Z,1.83
2022-08-19T19:55:09.603Z,1.73
2022-08-19T19:57:40.116Z,2.55
2022-08-19T20:00:09.259Z,1.83
2022-08-19T20:02:36.141Z,2.60
2022-08-19T20:05:03.265Z,1.30
2022-08-19T20:07:49.113Z,2.20
2022-08-19T20:10:16.134Z,1.98
2022-08-19T20:12:43.148Z,1.52
2022-08-19T20:15:10.667Z,2.15
2022-08-19T20:17:42.600Z,1.98
2022-08-19T20:20:15.013Z,2.08
2022-08-19T20:22:43.215Z,2.03
2022-08-19T20:25:15.175Z,1.80
2022-08-19T20:27:42.279Z,1.83
2022-08-19T20:30:13.842Z,1.70
2022-08-19T20:32:46.926Z,2.28
2022-08-19T20:35:15.563Z,2.65
2022-08-19T20:37:42.542Z,2.38
2022-08-19T20:40:11.187Z,2.38
2022-08-19T20:42:40.546Z,2.00
2022-08-19T20:45:32.371Z,2.25
2022-08-19T20:48:02.573Z,2.35
2022-08-19T20:50:30.999Z,2.50
2022-08-19T20:52:57.941Z,1.70
2022-08-19T20:55:25.884Z,2.30
2022-08-19T20:57:52.763Z,3.13
2022-08-19T21:00:19.860Z,1.55
2022-08-19T21:02:47.018Z,1.30
2022-08-19T21:05:15.139Z,1.77
2022-08-19T21:07:43.150Z,1.80
2022-08-19T21:10:10.632Z,1.52
2022-08-19T21:12:38.037Z,1.85
2022-08-19T21:15:05.661Z,1.55
2022-08-19T21:17:32.567Z,1.48
2022-08-19T21:19:59.449Z,1.33
2022-08-19T21:22:26.185Z,1.20
2022-08-19T21:24:52.991Z,1.52
2022-08-19T21:27:19.891Z,0.90
2022-08-19T21:29:46.754Z,1.30
2022-08-19T21:32:14.159Z,1.77
2022-08-19T21:34:43.686Z,1.63
2022-08-19T21:37:25.104Z,1.48
2022-08-19T21:39:53.966Z,0.95
2022-08-19T21:42:21.554Z,1.40
2022-08-19T21:44:48.395Z,1.45
2022-08-19T21:47:15.442Z,1.42
2022-08-19T21:49:42.386Z,1.40
2022-08-19T21:52:09.585Z,1.25
2022-08-19T21:54:37.710Z,0.95
2022-08-19T21:57:10.603Z,0.95
2022-08-19T21:59:41.205Z,0.70
2022-08-19T22:02:21.063Z,1.50
2022-08-19T22:04:50.858Z,1.42
2022-08-19T22:07:18.793Z,1.10
2022-08-19T22:12:30.660Z,1.38
2022-08-19T22:14:58.432Z,1.10
2022-08-19T22:17:27.378Z,1.95
2022-08-19T22:19:55.987Z,1.27
2022-08-19T22:22:29.128Z,1.30
2022-08-19T22:25:04.761Z,0.88
2022-08-19T22:27:32.048Z,1.20
2022-08-19T22:29:58.968Z,1.13
2022-08-19T22:32:26.825Z,1.23
2022-08-19T22:34:58.465Z,1.00
2022-08-19T22:37:26.048Z,0.82
2022-08-19T22:39:52.997Z,1.05
2022-08-19T22:42:21.304Z,1.02
2022-08-19T22:44:48.797Z,0.75
2022-08-19T22:47:16.446Z,1.58
2022-08-19T22:49:44.096Z,1.13
2022-08-19T22:52:20.113Z,0.98
2022-08-19T22:54:52.852Z,1.10
2022-08-19T22:57:21.025Z,0.75
2022-08-19T22:59:50.563Z,1.55
2022-08-19T23:02:24.790Z,0.65
2022-08-19T23:04:52.351Z,1.38
2022-08-19T23:07:23.480Z,0.60
2022-08-19T23:09:50.938Z,1.30
2022-08-19T23:12:30.656Z,1.00
2022-08-19T23:15:03.508Z,0.90
2022-08-19T23:17:30.287Z,0.93
2022-08-19T23:19:57.081Z,1.10
2022-08-19T23:22:24.980Z,1.55
2022-08-19T23:24:55.967Z,1.13
2022-08-19T23:27:41.816Z,1.00
2022-08-19T23:30:27.524Z,1.42
2022-08-19T23:33:12.658Z,1.35
2022-08-19T23:35:41.136Z,0.80
2022-08-19T23:38:09.287Z,1.85
2022-08-19T23:40:38.446Z,0.98
2022-08-19T23:43:09.590Z,1.13
2022-08-19T23:45:40.556Z,0.75
2022-08-19T23:48:08.149Z,1.23
2022-08-19T23:50:36.439Z,1.05
2022-08-19T23:53:04.377Z,0.98
2022-08-19T23:55:34.893Z,1.02
2022-08-19T23:58:03.276Z,0.80
